createdAt,value
2018-02-21T00:01:51.233Z,86.53
2018-02-21T00:04:18.729Z,91.70
2018-02-21T00:06:46.245Z,75.35
2018-02-21T00:09:13.732Z,80.07
2018-02-21T00:11:41.249Z,84.93
2018-02-21T00:14:09.132Z,77.50
2018-02-21T00:16:36.625Z,86.57
2018-02-21T00:19:04.537Z,78.57
2018-02-21T00:21:32.040Z,79.43
2018-02-21T00:23:59.557Z,83.72
2018-02-21T00:26:27.057Z,78.90
2018-02-21T00:28:54.573Z,83.53
2018-02-21T00:31:22.067Z,83.25
2018-02-21T00:33:49.576Z,90.50
2018-02-21T00:36:17.076Z,82.20
2018-02-21T00:38:44.593Z,78.05
2018-02-21T00:41:12.519Z,90.62
2018-02-21T00:43:40.033Z,92.03
2018-02-21T00:46:07.537Z,83.95
2018-02-21T00:48:35.435Z,84.60
2018-02-21T00:51:03.328Z,69.93
2018-02-21T00:53:31.233Z,83.85
2018-02-21T00:55:59.124Z,82.43
2018-02-21T00:58:27.032Z,70.90
2018-02-21T01:00:54.532Z,78.53
2018-02-21T01:03:22.071Z,93.85
2018-02-21T01:05:49.568Z,74.07
2018-02-21T01:08:17.471Z,77.68
2018-02-21T01:10:44.961Z,78.55
2018-02-21T01:13:12.472Z,82.60
2018-02-21T01:15:39.967Z,91.37
2018-02-21T01:18:07.481Z,78.93
2018-02-21T01:20:35.374Z,78.07
2018-02-21T01:23:03.285Z,82.57
2018-02-21T01:25:30.777Z,92.70
2018-02-21T01:27:58.290Z,77.85
2018-02-21T01:30:25.785Z,79.72
2018-02-21T01:32:53.292Z,72.32
2018-02-21T01:35:20.793Z,82.30
2018-02-21T01:37:48.704Z,81.45
2018-02-21T01:40:16.220Z,74.32
2018-02-21T01:42:43.728Z,86.35
2018-02-21T01:45:11.236Z,80.05
2018-02-21T01:47:39.141Z,74.75
2018-02-21T01:50:06.674Z,80.78
2018-02-21T01:52:34.164Z,75.60
2018-02-21T01:55:01.677Z,68.32
2018-02-21T01:57:29.574Z,78.95
2018-02-21T01:59:57.083Z,75.68
2018-02-21T02:02:24.572Z,78.45
2018-02-21T02:04:52.139Z,80.95
2018-02-21T02:07:19.645Z,75.37
2018-02-21T02:09:47.151Z,72.97
2018-02-21T02:12:14.648Z,74.07
2018-02-21T02:14:42.155Z,76.00
2018-02-21T02:17:09.653Z,75.82
2018-02-21T02:19:37.160Z,80.30
2018-02-21T02:22:04.657Z,75.12
2018-02-21T02:24:32.173Z,85.00
2018-02-21T02:27:00.065Z,76.32
2018-02-21T02:29:27.968Z,77.40
2018-02-21T02:31:55.849Z,74.30
2018-02-21T02:34:23.352Z,80.22
2018-02-21T02:36:50.868Z,77.50
2018-02-21T02:39:30.441Z,79.93
2018-02-21T02:41:58.053Z,75.12
2018-02-21T02:44:25.562Z,84.47
2018-02-21T02:46:53.448Z,75.85
2018-02-21T02:49:21.352Z,80.75
2018-02-21T02:51:48.839Z,74.25
2018-02-21T02:54:16.346Z,81.28
2018-02-21T02:56:43.837Z,74.03
2018-02-21T02:59:11.339Z,72.95
2018-02-21T03:01:38.832Z,75.18
2018-02-21T03:04:06.358Z,67.30
2018-02-21T03:06:33.844Z,67.75
2018-02-21T03:09:01.356Z,74.62
2018-02-21T03:11:28.857Z,72.50
2018-02-21T03:13:56.347Z,71.25
2018-02-21T03:16:23.876Z,75.07
2018-02-21T03:18:51.369Z,84.65
2018-02-21T03:21:18.889Z,74.80
2018-02-21T03:23:46.383Z,71.00
2018-02-21T03:26:13.893Z,82.75
2018-02-21T03:28:41.776Z,73.22
2018-02-21T03:31:09.359Z,80.97
2018-02-21T03:33:37.257Z,91.50
2018-02-21T03:36:05.188Z,83.32
2018-02-21T03:38:32.689Z,79.62
2018-02-21T03:41:00.195Z,82.70
2018-02-21T03:43:27.701Z,78.12
2018-02-21T03:45:55.613Z,78.57
2018-02-21T03:48:23.161Z,82.28
2018-02-21T03:50:50.672Z,73.85
2018-02-21T03:53:18.564Z,78.62
2018-02-21T03:55:46.463Z,73.03
2018-02-21T03:58:13.957Z,86.45
2018-02-21T04:00:41.464Z,71.32
2018-02-21T04:03:08.968Z,72.87
2018-02-21T04:05:36.480Z,74.68
2018-02-21T04:08:04.368Z,65.80
2018-02-21T04:10:31.885Z,75.03
2018-02-21T04:12:59.389Z,73.30
2018-02-21T04:15:26.901Z,69.57
2018-02-21T04:17:54.395Z,74.12
2018-02-21T04:20:21.903Z,68.30
2018-02-21T04:22:49.400Z,72.45
2018-02-21T04:25:16.917Z,63.03
2018-02-21T04:27:44.403Z,69.97
2018-02-21T04:30:11.914Z,67.03
2018-02-21T04:32:39.408Z,71.30
2018-02-21T04:35:07.318Z,66.82
2018-02-21T04:37:34.816Z,67.25
2018-02-21T04:40:02.303Z,76.97
2018-02-21T04:42:29.812Z,76.57
2018-02-21T04:44:57.304Z,67.82
2018-02-21T04:47:24.825Z,82.65
2018-02-21T04:49:52.320Z,77.25
2018-02-21T04:52:19.833Z,75.28
2018-02-21T04:54:53.157Z,78.90
2018-02-21T05:00:23.037Z,80.38
2018-02-21T05:02:50.522Z,85.97
2018-02-21T05:05:18.029Z,85.30
2018-02-21T05:07:45.535Z,84.10
2018-02-21T05:10:13.029Z,87.35
2018-02-21T05:12:40.938Z,87.15
2018-02-21T05:15:08.432Z,91.50
2018-02-21T05:17:36.005Z,83.57
2018-02-21T05:20:03.507Z,88.70
2018-02-21T05:22:31.022Z,86.95
2018-02-21T05:24:58.526Z,92.93
2018-02-21T05:27:26.032Z,93.37
2018-02-21T05:29:53.914Z,94.10
2018-02-21T05:32:21.824Z,97.85
2018-02-21T05:34:49.311Z,92.72
2018-02-21T05:37:16.863Z,84.28
2018-02-21T05:39:44.335Z,94.47
2018-02-21T05:42:11.846Z,93.55
2018-02-21T05:44:39.738Z,97.57
2018-02-21T05:47:07.644Z,92.37
2018-02-21T05:49:35.153Z,101.80
2018-02-21T05:52:02.671Z,103.00
2018-02-21T05:54:30.172Z,104.85
2018-02-21T05:56:57.680Z,94.50
2018-02-21T05:59:25.172Z,88.03
2018-02-21T06:01:52.680Z,89.03
2018-02-21T06:04:20.220Z,101.97
2018-02-21T06:06:48.129Z,92.57
2018-02-21T06:09:15.624Z,90.03
2018-02-21T06:11:43.124Z,95.82
2018-02-21T06:14:10.647Z,90.62
2018-02-21T06:16:38.136Z,87.37
2018-02-21T06:19:06.034Z,87.37
2018-02-21T06:21:33.926Z,92.78
2018-02-21T06:24:01.848Z,100.93
2018-02-21T06:26:29.340Z,96.28
2018-02-21T06:28:56.856Z,93.97
2018-02-21T06:31:24.349Z,96.45
2018-02-21T06:33:51.865Z,89.70
2018-02-21T06:36:19.360Z,105.63
2018-02-21T06:38:46.868Z,85.22
2018-02-21T06:41:14.365Z,98.93
2018-02-21T06:43:41.899Z,93.62
2018-02-21T06:46:09.395Z,94.78
2018-02-21T06:48:36.909Z,89.65
2018-02-21T06:51:04.405Z,93.62
2018-02-21T06:53:31.920Z,103.00
2018-02-21T06:55:59.812Z,105.00
2018-02-21T06:58:27.328Z,140.35
2018-02-21T07:00:54.829Z,164.52
2018-02-21T07:03:22.345Z,198.85
2018-02-21T07:05:49.852Z,129.55
2018-02-21T07:08:17.374Z,119.15
2018-02-21T07:10:44.877Z,124.38
2018-02-21T07:13:12.400Z,109.15
2018-02-21T07:15:39.952Z,108.22
2018-02-21T07:18:07.441Z,100.47
2018-02-21T07:20:34.938Z,113.93
2018-02-21T07:23:02.853Z,119.53
2018-02-21T07:25:30.357Z,109.60
2018-02-21T07:27:57.879Z,103.68
2018-02-21T07:30:25.376Z,108.45
2018-02-21T07:32:52.899Z,109.57
2018-02-21T07:35:20.667Z,101.53
2018-02-21T07:37:48.175Z,105.30
2018-02-21T07:40:15.697Z,114.40
2018-02-21T07:42:43.210Z,108.85
2018-02-21T07:45:10.770Z,90.20
2018-02-21T07:47:38.229Z,93.20
2018-02-21T07:50:05.744Z,95.87
2018-02-21T07:52:33.236Z,101.05
2018-02-21T07:55:01.132Z,109.60
2018-02-21T07:57:29.012Z,111.85
2018-02-21T07:59:56.524Z,105.97
2018-02-21T08:02:24.032Z,100.60
2018-02-21T08:04:51.537Z,105.78
2018-02-21T08:07:19.031Z,116.20
2018-02-21T08:09:46.549Z,108.65
2018-02-21T08:12:14.436Z,109.78
2018-02-21T08:14:42.340Z,115.65
2018-02-21T08:17:09.832Z,111.65
2018-02-21T08:19:37.339Z,110.95
2018-02-21T08:22:04.836Z,100.57
2018-02-21T08:24:32.351Z,115.47
2018-02-21T08:27:00.244Z,110.03
2018-02-21T08:29:28.148Z,109.03
2018-02-21T08:31:56.041Z,106.15
2018-02-21T08:34:23.949Z,93.90
2018-02-21T08:36:51.439Z,111.37
2018-02-21T08:39:18.956Z,107.37
2018-02-21T08:41:46.447Z,100.60
2018-02-21T08:44:13.957Z,89.47
2018-02-21T08:46:41.841Z,98.57
2018-02-21T08:49:09.354Z,90.45
2018-02-21T08:51:36.846Z,95.55
2018-02-21T08:54:04.368Z,95.60
2018-02-21T08:56:31.854Z,79.80
2018-02-21T08:58:59.339Z,88.30
2018-02-21T09:01:26.853Z,84.07
2018-02-21T09:03:54.741Z,89.75
2018-02-21T09:06:22.257Z,87.20
2018-02-21T09:08:49.737Z,86.87
2018-02-21T09:11:17.265Z,80.18
2018-02-21T09:13:44.764Z,80.28
2018-02-21T09:16:12.273Z,72.93
2018-02-21T09:18:39.764Z,76.60
2018-02-21T09:21:07.272Z,70.20
2018-02-21T09:23:34.773Z,74.25
2018-02-21T09:26:02.285Z,69.37
2018-02-21T09:28:30.177Z,69.72
2018-02-21T09:30:58.160Z,71.68
2018-02-21T09:33:25.658Z,65.28
2018-02-21T09:35:53.159Z,63.95
2018-02-21T09:38:20.643Z,76.28
2018-02-21T09:40:48.148Z,68.93
2018-02-21T09:43:15.639Z,70.97
2018-02-21T09:45:43.132Z,65.43
2018-02-21T09:48:10.629Z,67.75
2018-02-21T09:50:38.145Z,71.45
2018-02-21T09:53:06.033Z,68.90
2018-02-21T09:55:33.535Z,60.67
2018-02-21T09:58:01.426Z,66.72
2018-02-21T10:00:29.332Z,61.08
2018-02-21T10:02:56.816Z,54.20
2018-02-21T10:05:24.333Z,54.63
2018-02-21T10:07:51.825Z,54.80
2018-02-21T10:10:19.338Z,59.13
2018-02-21T10:12:47.225Z,58.85
2018-02-21T10:15:15.128Z,55.78
2018-02-21T10:17:43.013Z,55.63
2018-02-21T10:20:10.976Z,51.15
2018-02-21T10:22:38.470Z,50.72
2018-02-21T10:25:05.965Z,55.10
2018-02-21T10:27:33.488Z,51.35
2018-02-21T10:30:01.057Z,52.85
2018-02-21T10:32:28.568Z,51.97
2018-02-21T10:34:56.103Z,56.00
2018-02-21T10:37:23.617Z,51.70
2018-02-21T10:39:51.146Z,47.70
2018-02-21T10:42:18.669Z,45.88
2018-02-21T10:44:46.171Z,50.10
2018-02-21T10:47:13.679Z,44.25
2018-02-21T10:49:41.187Z,47.08
2018-02-21T10:52:09.877Z,40.00
2018-02-21T10:54:37.375Z,44.47
2018-02-21T10:57:04.909Z,49.95
2018-02-21T10:59:32.824Z,46.42
2018-02-21T11:02:00.390Z,48.28
2018-02-21T11:04:28.311Z,47.05
2018-02-21T11:06:55.817Z,46.63
2018-02-21T11:09:24.617Z,50.03
2018-02-21T11:11:52.141Z,46.97
2018-02-21T11:14:19.692Z,43.10
2018-02-21T11:16:47.201Z,48.05
2018-02-21T11:19:14.683Z,42.38
2018-02-21T11:21:42.217Z,47.78
2018-02-21T11:24:10.211Z,45.80
2018-02-21T11:26:37.729Z,49.00
2018-02-21T11:29:05.226Z,47.97
2018-02-21T11:31:32.812Z,40.35
2018-02-21T11:34:00.307Z,45.05
2018-02-21T11:36:28.062Z,47.53
2018-02-21T11:38:55.954Z,40.30
2018-02-21T11:41:23.909Z,46.33
2018-02-21T11:43:51.404Z,44.58
2018-02-21T11:46:18.936Z,43.63
2018-02-21T11:48:46.420Z,40.78
2018-02-21T11:51:13.977Z,42.38
2018-02-21T11:53:41.881Z,41.28
2018-02-21T11:56:09.788Z,36.53
2018-02-21T11:58:37.319Z,44.95
2018-02-21T12:01:04.803Z,46.40
2018-02-21T12:03:32.304Z,45.75
2018-02-21T12:06:00.044Z,42.72
2018-02-21T12:08:27.556Z,47.00
2018-02-21T12:10:55.049Z,44.72
2018-02-21T12:13:22.555Z,45.90
2018-02-21T12:15:50.454Z,44.00
2018-02-21T12:18:18.389Z,45.88
2018-02-21T12:20:46.054Z,46.20
2018-02-21T12:23:13.565Z,47.55
2018-02-21T12:25:41.067Z,42.53
2018-02-21T12:28:08.592Z,54.25
2018-02-21T12:30:36.078Z,51.92
2018-02-21T12:33:03.584Z,48.70
2018-02-21T12:35:31.063Z,50.67
2018-02-21T12:37:58.614Z,49.30
2018-02-21T12:40:32.208Z,47.33
2018-02-21T12:42:59.711Z,50.85
2018-02-21T12:45:27.187Z,47.45
2018-02-21T12:47:54.693Z,52.55
2018-02-21T12:50:22.186Z,51.37
2018-02-21T12:52:49.697Z,52.97
2018-02-21T12:55:17.189Z,58.15
2018-02-21T12:57:44.715Z,50.70
2018-02-21T13:00:12.652Z,43.15
2018-02-21T13:02:40.154Z,55.85
2018-02-21T13:05:07.655Z,54.25
2018-02-21T13:07:35.168Z,53.63
2018-02-21T13:10:03.053Z,55.53
2018-02-21T13:12:30.955Z,53.85
2018-02-21T13:14:58.831Z,58.08
2018-02-21T13:17:26.313Z,56.13
2018-02-21T13:19:53.853Z,66.85
2018-02-21T13:22:21.346Z,55.22
2018-02-21T13:24:48.965Z,55.53
2018-02-21T13:27:16.486Z,57.62
2018-02-21T13:29:43.983Z,60.25
2018-02-21T13:32:11.475Z,57.33
2018-02-21T13:34:38.985Z,58.45
2018-02-21T13:37:06.483Z,57.90
2018-02-21T13:39:34.406Z,54.13
2018-02-21T13:42:01.896Z,59.72
2018-02-21T13:44:29.409Z,55.08
2018-02-21T13:46:56.901Z,55.05
2018-02-21T13:49:24.407Z,58.00
2018-02-21T13:51:52.298Z,40.95
2018-02-21T13:54:19.799Z,50.05
2018-02-21T13:56:47.681Z,55.80
2018-02-21T13:59:15.588Z,57.47
2018-02-21T14:01:43.478Z,60.70
2018-02-21T14:04:11.383Z,57.03
2018-02-21T14:06:38.867Z,65.12
2018-02-21T14:09:06.383Z,60.97
2018-02-21T14:11:33.876Z,59.15
2018-02-21T14:14:01.582Z,56.72
2018-02-21T14:16:29.090Z,53.08
2018-02-21T14:18:56.988Z,52.53
2018-02-21T14:21:24.866Z,57.83
2018-02-21T14:23:52.777Z,50.08
2018-02-21T14:26:20.267Z,54.80
2018-02-21T14:28:47.777Z,59.35
2018-02-21T14:31:15.270Z,55.67
2018-02-21T14:33:42.771Z,59.30
2018-02-21T14:36:10.252Z,52.00
2018-02-21T14:38:37.773Z,53.53
2018-02-21T14:41:05.265Z,46.60
2018-02-21T14:43:32.793Z,56.65
2018-02-21T14:46:00.284Z,58.85
2018-02-21T14:48:27.784Z,50.30
2018-02-21T14:50:55.384Z,46.30
2018-02-21T14:53:23.247Z,53.55
2018-02-21T14:55:50.936Z,52.72
2018-02-21T14:58:18.456Z,54.13
2018-02-21T15:00:45.977Z,57.55
2018-02-21T15:03:13.460Z,54.47
2018-02-21T15:05:41.006Z,57.65
2018-02-21T15:08:08.545Z,60.35
2018-02-21T15:10:36.065Z,50.28
2018-02-21T15:13:03.565Z,55.00
2018-02-21T15:15:31.068Z,60.38
2018-02-21T15:17:58.948Z,54.80
2018-02-21T15:20:26.455Z,57.90
2018-02-21T15:22:53.936Z,60.45
2018-02-21T15:25:21.441Z,55.47
2018-02-21T15:27:49.340Z,66.87
2018-02-21T15:30:17.245Z,59.35
2018-02-21T15:32:44.812Z,61.55
2018-02-21T15:35:12.731Z,62.50
2018-02-21T15:37:40.254Z,64.55
2018-02-21T15:40:07.763Z,55.42
2018-02-21T15:42:35.652Z,56.97
2018-02-21T15:45:03.160Z,53.10
2018-02-21T15:47:30.647Z,58.53
2018-02-21T15:49:58.152Z,59.88
2018-02-21T15:52:25.652Z,57.03
2018-02-21T15:54:53.174Z,54.20
2018-02-21T15:57:21.977Z,53.92
2018-02-21T15:59:49.502Z,60.47
2018-02-21T16:02:17.036Z,51.65
2018-02-21T16:04:44.569Z,53.00
2018-02-21T16:07:12.065Z,54.78
2018-02-21T16:09:39.714Z,57.15
2018-02-21T16:12:07.600Z,55.25
2018-02-21T16:14:35.155Z,58.55
2018-02-21T16:17:02.646Z,48.03
2018-02-21T16:19:30.133Z,52.78
2018-02-21T16:21:57.649Z,50.88
2018-02-21T16:24:25.540Z,48.35
2018-02-21T16:26:53.435Z,50.75
2018-02-21T16:29:20.985Z,49.40
2018-02-21T16:31:48.493Z,55.22
2018-02-21T16:34:16.393Z,48.33
2018-02-21T16:36:44.301Z,47.80
2018-02-21T16:39:11.797Z,45.85
2018-02-21T16:41:39.314Z,55.22
2018-02-21T16:44:06.871Z,47.03
2018-02-21T16:46:34.390Z,46.67
2018-02-21T16:49:01.884Z,43.20
2018-02-21T16:51:29.409Z,44.33
2018-02-21T16:54:02.569Z,45.65
2018-02-21T16:56:30.085Z,47.62
2018-02-21T16:58:58.020Z,42.03
2018-02-21T17:01:25.525Z,47.75
2018-02-21T17:03:53.020Z,47.15
2018-02-21T17:06:20.548Z,40.95
2018-02-21T17:08:48.057Z,44.70
2018-02-21T17:11:15.559Z,41.75
2018-02-21T17:13:43.040Z,36.50
2018-02-21T17:16:10.541Z,37.72
2018-02-21T17:18:38.042Z,42.58
2018-02-21T17:21:05.984Z,41.63
2018-02-21T17:23:33.481Z,36.47
2018-02-21T17:26:01.026Z,39.33
2018-02-21T17:28:28.504Z,36.97
2018-02-21T17:30:56.026Z,40.03
2018-02-21T17:33:23.521Z,49.00
2018-02-21T17:35:51.035Z,39.45
2018-02-21T17:38:18.517Z,38.05
2018-02-21T17:40:51.885Z,29.77
2018-02-21T17:43:19.769Z,36.72
2018-02-21T17:45:47.647Z,43.08
2018-02-21T17:48:15.160Z,37.55
2018-02-21T17:50:42.653Z,39.10
2018-02-21T17:53:10.566Z,37.90
2018-02-21T17:55:38.081Z,38.65
2018-02-21T17:58:05.598Z,39.42
2018-02-21T18:00:33.096Z,40.67
2018-02-21T18:03:01.009Z,32.35
2018-02-21T18:05:28.513Z,41.40
2018-02-21T18:07:56.026Z,33.38
2018-02-21T18:10:23.517Z,38.67
2018-02-21T18:12:51.120Z,39.50
2018-02-21T18:15:18.658Z,38.30
2018-02-21T18:17:46.168Z,37.08
2018-02-21T18:20:13.669Z,38.08
2018-02-21T18:22:41.168Z,41.83
2018-02-21T18:25:08.652Z,39.90
2018-02-21T18:27:36.568Z,38.22
2018-02-21T18:30:04.098Z,42.03
2018-02-21T18:32:31.629Z,37.17
2018-02-21T18:34:59.516Z,41.47
2018-02-21T18:37:27.029Z,41.95
2018-02-21T18:39:54.521Z,40.72
2018-02-21T18:42:22.024Z,38.63
2018-02-21T18:44:49.521Z,41.85
2018-02-21T18:47:17.033Z,45.03
2018-02-21T18:49:44.531Z,40.78
2018-02-21T18:52:12.438Z,43.78
2018-02-21T18:54:40.326Z,41.47
2018-02-21T18:57:07.860Z,38.45
2018-02-21T18:59:35.353Z,38.45
2018-02-21T19:02:02.865Z,46.78
2018-02-21T19:04:30.356Z,38.55
2018-02-21T19:06:57.867Z,43.35
2018-02-21T19:09:25.668Z,41.88
2018-02-21T19:11:53.155Z,40.38
2018-02-21T19:14:20.708Z,38.72
2018-02-21T19:16:48.280Z,44.53
2018-02-21T19:19:15.829Z,37.97
2018-02-21T19:21:43.311Z,40.20
2018-02-21T19:24:10.815Z,39.65
2018-02-21T19:26:38.305Z,39.55
2018-02-21T19:29:05.825Z,41.28
2018-02-21T19:31:33.320Z,42.08
2018-02-21T19:34:01.225Z,39.25
2018-02-21T19:36:29.112Z,42.05
2018-02-21T19:38:56.666Z,41.13
2018-02-21T19:41:24.165Z,41.80
2018-02-21T19:43:51.682Z,39.70
2018-02-21T19:46:19.623Z,38.63
2018-02-21T19:48:47.133Z,44.03
2018-02-21T19:51:14.629Z,56.15
2018-02-21T19:53:42.136Z,45.08
2018-02-21T19:56:09.641Z,41.37
2018-02-21T19:58:37.531Z,40.90
2018-02-21T20:01:05.011Z,37.75
2018-02-21T20:03:32.921Z,37.83
2018-02-21T20:06:00.804Z,44.53
2018-02-21T20:08:28.300Z,39.67
2018-02-21T20:10:55.793Z,40.53
2018-02-21T20:13:23.309Z,36.88
2018-02-21T20:15:50.800Z,38.53
2018-02-21T20:18:18.388Z,41.78
2018-02-21T20:20:45.905Z,41.35
2018-02-21T20:23:13.418Z,40.30
2018-02-21T20:25:40.898Z,47.22
2018-02-21T20:28:08.497Z,38.70
2018-02-21T20:30:36.389Z,43.97
2018-02-21T20:33:03.900Z,37.70
2018-02-21T20:35:31.809Z,42.90
2018-02-21T20:37:59.301Z,44.83
2018-02-21T20:40:26.808Z,40.58
2018-02-21T20:42:54.320Z,39.10
2018-02-21T20:45:21.816Z,44.72
2018-02-21T20:47:49.298Z,40.08
2018-02-21T20:50:16.804Z,35.38
2018-02-21T20:52:44.688Z,44.28
2018-02-21T20:55:12.591Z,43.00
2018-02-21T20:57:40.112Z,40.70
2018-02-21T21:00:07.626Z,44.17
2018-02-21T21:02:35.103Z,41.08
2018-02-21T21:05:02.605Z,44.67
2018-02-21T21:07:30.094Z,45.92
2018-02-21T21:09:57.612Z,46.63
2018-02-21T21:12:25.501Z,43.90
2018-02-21T21:14:53.013Z,46.17
2018-02-21T21:17:20.540Z,44.22
2018-02-21T21:19:48.039Z,44.10
2018-02-21T21:22:15.533Z,38.45
2018-02-21T21:24:43.051Z,44.80
2018-02-21T21:27:10.937Z,46.97
2018-02-21T21:29:38.845Z,45.05
2018-02-21T21:32:06.725Z,50.78
2018-02-21T21:34:34.244Z,45.72
2018-02-21T21:37:01.748Z,46.35
2018-02-21T21:39:29.260Z,43.42
2018-02-21T21:41:56.744Z,51.53
2018-02-21T21:44:24.258Z,43.35
2018-02-21T21:46:51.761Z,47.40
2018-02-21T21:49:19.280Z,46.08
2018-02-21T21:51:47.160Z,43.47
2018-02-21T21:54:14.681Z,46.90
2018-02-21T21:56:42.257Z,46.47
2018-02-21T21:59:10.150Z,50.28
2018-02-21T22:01:38.061Z,48.28
2018-02-21T22:04:05.554Z,43.78
2018-02-21T22:06:33.066Z,51.78
2018-02-21T22:09:00.551Z,47.30
2018-02-21T22:11:28.061Z,46.28
2018-02-21T22:13:55.561Z,48.70
2018-02-21T22:16:23.082Z,50.60
2018-02-21T22:18:50.968Z,46.65
2018-02-21T22:21:18.484Z,46.85
2018-02-21T22:23:45.980Z,52.53
2018-02-21T22:26:13.501Z,53.10
2018-02-21T22:28:41.017Z,50.33
2018-02-21T22:31:08.541Z,51.63
2018-02-21T22:33:36.436Z,52.35
2018-02-21T22:36:03.954Z,52.28
2018-02-21T22:38:31.439Z,47.80
2018-02-21T22:40:58.959Z,45.78
2018-02-21T22:43:26.451Z,51.90
2018-02-21T22:45:53.961Z,54.13
2018-02-21T22:48:21.847Z,51.45
2018-02-21T22:50:49.358Z,50.53
2018-02-21T22:53:17.248Z,51.63
2018-02-21T22:55:44.840Z,44.45
2018-02-21T22:58:12.332Z,49.72
2018-02-21T23:00:39.835Z,46.47
2018-02-21T23:03:07.716Z,49.42
2018-02-21T23:05:35.233Z,48.45
2018-02-21T23:08:03.129Z,54.05
2018-02-21T23:10:31.037Z,44.28
2018-02-21T23:12:58.523Z,57.83
2018-02-21T23:15:26.433Z,46.37
2018-02-21T23:17:53.933Z,52.78
2018-02-21T23:20:21.457Z,43.35
2018-02-21T23:22:48.955Z,53.72
2018-02-21T23:25:16.443Z,48.17
2018-02-21T23:27:43.958Z,51.53
2018-02-21T23:30:11.866Z,50.97
2018-02-21T23:32:39.400Z,49.75
2018-02-21T23:35:06.892Z,43.65
2018-02-21T23:37:34.404Z,46.17
2018-02-21T23:40:01.904Z,45.78
2018-02-21T23:42:29.830Z,50.75
2018-02-21T23:44:57.328Z,51.33
2018-02-21T23:47:24.841Z,48.03
2018-02-21T23:49:52.452Z,44.38
2018-02-21T23:52:19.960Z,47.72
2018-02-21T23:54:47.860Z,41.33
2018-02-21T23:57:15.376Z,48.50
2018-02-21T23:59:42.905Z,45.58
